sensor_id;sensor_type;location;lat;lon;timestamp;temperature;humidity
17797;DHT22;55596;53.554;9.916;2023-02-28T12:02:20;9.70;90.90
17797;DHT22;55596;53.554;9.916;2023-02-28T12:05:01;12.40;94.00
17797;DHT22;55596;53.554;9.916;2023-02-28T12:07:38;11.60;87.70
17797;DHT22;55596;53.554;9.916;2023-02-28T12:10:21;12.10;68.50
17797;DHT22;55596;53.554;9.916;2023-02-28T12:13:01;11.80;52.70
17797;DHT22;55596;53.554;9.916;2023-02-28T12:15:57;11.60;66.10
17797;DHT22;55596;53.554;9.916;2023-02-28T12:18:39;11.90;72.20
17797;DHT22;55596;53.554;9.916;2023-02-28T12:21:16;12.50;64.50
17797;DHT22;55596;53.554;9.916;2023-02-28T12:24:13;12.60;63.00
17797;DHT22;55596;53.554;9.916;2023-02-28T12:26:44;13.50;61.40
17797;DHT22;55596;53.554;9.916;2023-02-28T12:34:17;14.60;59.40
17797;DHT22;55596;53.554;9.916;2023-02-28T12:36:47;15.90;53.40
17797;DHT22;55596;53.554;9.916;2023-02-28T12:39:18;16.40;49.90
17797;DHT22;55596;53.554;9.916;2023-02-28T12:41:51;16.90;40.80
17797;DHT22;55596;53.554;9.916;2023-02-28T12:46:52;17.30;40.40
17797;DHT22;55596;53.554;9.916;2023-02-28T12:49:25;18.60;45.00
17797;DHT22;55596;53.554;9.916;2023-02-28T12:51:56;19.00;41.10
17797;DHT22;55596;53.554;9.916;2023-02-28T12:54:30;21.40;39.00
17797;DHT22;55596;53.554;9.916;2023-02-28T12:57:03;19.90;39.40
17797;DHT22;55596;53.554;9.916;2023-02-28T12:59:38;19.80;32.80
17797;DHT22;55596;53.554;9.916;2023-02-28T13:02:44;20.20;36.80
17797;DHT22;55596;53.554;9.916;2023-02-28T13:05:46;19.80;36.10
17797;DHT22;55596;53.554;9.916;2023-02-28T13:08:27;20.00;38.30
17797;DHT22;55596;53.554;9.916;2023-02-28T13:11:02;19.90;35.20
17797;DHT22;55596;53.554;9.916;2023-02-28T13:13:30;20.20;33.30
17797;DHT22;55596;53.554;9.916;2023-02-28T13:16:05;19.70;35.20
17797;DHT22;55596;53.554;9.916;2023-02-28T13:18:35;20.20;36.20
17797;DHT22;55596;53.554;9.916;2023-02-28T13:21:07;20.10;33.10
17797;DHT22;55596;53.554;9.916;2023-02-28T13:23:58;19.90;31.70
17797;DHT22;55596;53.554;9.916;2023-02-28T13:29:30;20.50;31.30
17797;DHT22;55596;53.554;9.916;2023-02-28T13:38:40;21.30;32.60
17797;DHT22;55596;53.554;9.916;2023-02-28T13:44:09;21.10;28.70
17797;DHT22;55596;53.554;9.916;2023-02-28T13:49:42;20.50;32.50
17797;DHT22;55596;53.554;9.916;2023-02-28T13:52:15;20.30;31.90
17797;DHT22;55596;53.554;9.916;2023-02-28T13:54:57;20.20;32.10
17797;DHT22;55596;53.554;9.916;2023-02-28T13:57:35;20.90;29.00
17797;DHT22;55596;53.554;9.916;2023-02-28T14:00:17;21.20;36.50
17797;DHT22;55596;53.554;9.916;2023-02-28T14:03:09;21.40;30.20
17797;DHT22;55596;53.554;9.916;2023-02-28T14:05:40;21.30;31.00
17797;DHT22;55596;53.554;9.916;2023-02-28T14:08:13;21.00;31.80
17797;DHT22;55596;53.554;9.916;2023-02-28T14:10:44;21.00;31.80
17797;DHT22;55596;53.554;9.916;2023-02-28T14:15:56;21.50;33.90
17797;DHT22;55596;53.554;9.916;2023-02-28T14:18:27;22.00;30.80
17797;DHT22;55596;53.554;9.916;2023-02-28T14:20:58;21.80;32.30
17797;DHT22;55596;53.554;9.916;2023-02-28T14:29:24;22.40;29.50
17797;DHT22;55596;53.554;9.916;2023-02-28T14:31:58;22.40;24.40
17797;DHT22;55596;53.554;9.916;2023-02-28T14:34:37;22.00;27.60
17797;DHT22;55596;53.554;9.916;2023-02-28T14:37:13;22.00;30.40
17797;DHT22;55596;53.554;9.916;2023-02-28T14:39:43;22.00;29.80
17797;DHT22;55596;53.554;9.916;2023-02-28T14:42:32;21.60;27.80
17797;DHT22;55596;53.554;9.916;2023-02-28T14:45:00;21.00;30.00
17797;DHT22;55596;53.554;9.916;2023-02-28T14:47:30;20.70;33.80
17797;DHT22;55596;53.554;9.916;2023-02-28T14:49:58;19.90;29.30
17797;DHT22;55596;53.554;9.916;2023-02-28T14:52:27;19.10;32.60
17797;DHT22;55596;53.554;9.916;2023-02-28T14:54:57;18.90;36.30
17797;DHT22;55596;53.554;9.916;2023-02-28T14:57:27;18.40;39.10
17797;DHT22;55596;53.554;9.916;2023-02-28T15:00:00;18.30;33.40
17797;DHT22;55596;53.554;9.916;2023-02-28T15:02:31;17.70;32.30
17797;DHT22;55596;53.554;9.916;2023-02-28T15:04:59;17.10;31.50
17797;DHT22;55596;53.554;9.916;2023-02-28T15:07:27;16.50;29.00
17797;DHT22;55596;53.554;9.916;2023-02-28T15:10:17;16.00;31.20
17797;DHT22;55596;53.554;9.916;2023-02-28T15:12:51;15.90;32.50
17797;DHT22;55596;53.554;9.916;2023-02-28T15:17:51;15.30;33.40
17797;DHT22;55596;53.554;9.916;2023-02-28T15:20:19;14.80;33.30
17797;DHT22;55596;53.554;9.916;2023-02-28T15:22:47;14.50;37.60
17797;DHT22;55596;53.554;9.916;2023-02-28T15:25:20;13.80;35.40
17797;DHT22;55596;53.554;9.916;2023-02-28T15:33:03;13.20;46.40
17797;DHT22;55596;53.554;9.916;2023-02-28T15:35:32;13.00;36.40
17797;DHT22;55596;53.554;9.916;2023-02-28T15:38:02;13.10;36.40
17797;DHT22;55596;53.554;9.916;2023-02-28T15:40:33;12.60;34.50
17797;DHT22;55596;53.554;9.916;2023-02-28T15:43:07;12.60;47.00
17797;DHT22;55596;53.554;9.916;2023-02-28T15:45:41;12.40;44.20
17797;DHT22;55596;53.554;9.916;2023-02-28T15:48:17;12.00;42.40
17797;DHT22;55596;53.554;9.916;2023-02-28T15:50:48;11.90;40.30
17797;DHT22;55596;53.554;9.916;2023-02-28T15:53:18;11.70;39.60
17797;DHT22;55596;53.554;9.916;2023-02-28T15:55:53;11.00;40.30
17797;DHT22;55596;53.554;9.916;2023-02-28T15:58:22;10.70;42.30
17797;DHT22;55596;53.554;9.916;2023-02-28T16:01:04;10.00;47.30
17797;DHT22;55596;53.554;9.916;2023-02-28T16:03:39;9.50;48.80
17797;DHT22;55596;53.554;9.916;2023-02-28T16:06:36;10.50;47.80
17797;DHT22;55596;53.554;9.916;2023-02-28T16:09:05;8.50;39.80
17797;DHT22;55596;53.554;9.916;2023-02-28T16:11:35;8.20;50.30
17797;DHT22;55596;53.554;9.916;2023-02-28T16:14:04;8.50;47.20
17797;DHT22;55596;53.554;9.916;2023-02-28T16:16:31;7.90;50.00
17797;DHT22;55596;53.554;9.916;2023-02-28T16:19:00;7.60;50.10
17797;DHT22;55596;53.554;9.916;2023-02-28T16:21:27;7.10;55.90
17797;DHT22;55596;53.554;9.916;2023-02-28T16:23:54;7.00;50.60
17797;DHT22;55596;53.554;9.916;2023-02-28T16:26:23;6.70;52.70
17797;DHT22;55596;53.554;9.916;2023-02-28T16:28:52;7.60;43.20
17797;DHT22;55596;53.554;9.916;2023-02-28T16:31:19;6.60;59.50
17797;DHT22;55596;53.554;9.916;2023-02-28T16:33:47;6.40;61.50
17797;DHT22;55596;53.554;9.916;2023-02-28T16:36:17;6.20;48.10
17797;DHT22;55596;53.554;9.916;2023-02-28T16:38:45;6.10;61.60
17797;DHT22;55596;53.554;9.916;2023-02-28T16:41:14;6.30;57.10
17797;DHT22;55596;53.554;9.916;2023-02-28T16:43:46;5.80;53.30
17797;DHT22;55596;53.554;9.916;2023-02-28T16:46:14;5.40;61.20
17797;DHT22;55596;53.554;9.916;2023-02-28T16:48:42;5.50;52.40
17797;DHT22;55596;53.554;9.916;2023-02-28T16:51:12;5.30;46.30
17797;DHT22;55596;53.554;9.916;2023-02-28T16:53:41;4.90;50.10
17797;DHT22;55596;53.554;9.916;2023-02-28T16:56:15;4.80;57.90
17797;DHT22;55596;53.554;9.916;2023-02-28T16:58:42;4.70;62.70
17797;DHT22;55596;53.554;9.916;2023-02-28T17:01:09;4.50;57.40
17797;DHT22;55596;53.554;9.916;2023-02-28T17:03:37;4.50;55.00
17797;DHT22;55596;53.554;9.916;2023-02-28T17:06:06;4.50;59.60
17797;DHT22;55596;53.554;9.916;2023-02-28T17:08:37;4.00;48.90
17797;DHT22;55596;53.554;9.916;2023-02-28T17:11:06;4.20;54.50
17797;DHT22;55596;53.554;9.916;2023-02-28T17:13:33;4.10;59.80
17797;DHT22;55596;53.554;9.916;2023-02-28T17:16:00;7.00;72.80
17797;DHT22;55596;53.554;9.916;2023-02-28T17:18:29;4.00;52.90
17797;DHT22;55596;53.554;9.916;2023-02-28T17:20:59;3.80;57.80
17797;DHT22;55596;53.554;9.916;2023-02-28T17:23:26;3.80;68.00
17797;DHT22;55596;53.554;9.916;2023-02-28T17:25:53;3.70;71.60
17797;DHT22;55596;53.554;9.916;2023-02-28T17:28:24;3.20;64.90
17797;DHT22;55596;53.554;9.916;2023-02-28T17:30:51;3.30;62.90
17797;DHT22;55596;53.554;9.916;2023-02-28T17:33:18;3.30;67.60
17797;DHT22;55596;53.554;9.916;2023-02-28T17:35:45;3.30;71.40
17797;DHT22;55596;53.554;9.916;2023-02-28T17:38:16;4.10;60.80
17797;DHT22;55596;53.554;9.916;2023-02-28T17:40:43;3.00;82.00
17797;DHT22;55596;53.554;9.916;2023-02-28T17:43:10;3.10;72.70
17797;DHT22;55596;53.554;9.916;2023-02-28T17:45:39;2.90;87.20
17797;DHT22;55596;53.554;9.916;2023-02-28T17:48:09;2.50;81.10
17797;DHT22;55596;53.554;9.916;2023-02-28T17:50:36;2.40;89.60
17797;DHT22;55596;53.554;9.916;2023-02-28T17:53:03;2.50;94.80
17797;DHT22;55596;53.554;9.916;2023-02-28T17:55:30;2.80;96.30
17797;DHT22;55596;53.554;9.916;2023-02-28T17:57:59;2.20;99.90
17797;DHT22;55596;53.554;9.916;2023-02-28T18:00:26;2.20;99.90
17797;DHT22;55596;53.554;9.916;2023-02-28T18:02:55;2.30;99.90
17797;DHT22;55596;53.554;9.916;2023-02-28T18:05:23;3.00;99.90
17797;DHT22;55596;53.554;9.916;2023-02-28T18:07:51;2.20;99.90
